createdAt,value
2016-12-23T00:00:55.571Z,2.75
2016-12-23T00:01:55.310Z,2.71
2016-12-23T00:02:55.566Z,2.75
2016-12-23T00:03:55.445Z,2.69
2016-12-23T00:04:55.680Z,2.68
2016-12-23T00:05:56.026Z,2.72
2016-12-23T00:06:55.363Z,2.69
2016-12-23T00:07:55.594Z,2.74
2016-12-23T00:08:54.889Z,2.72
2016-12-23T00:09:55.794Z,2.61
2016-12-23T00:10:55.839Z,2.72
2016-12-23T00:11:55.435Z,2.68
2016-12-23T00:12:55.450Z,2.79
2016-12-23T00:13:55.709Z,2.65
2016-12-23T00:14:55.714Z,2.71
2016-12-23T00:15:55.259Z,2.72
2016-12-23T00:16:55.686Z,2.69
2016-12-23T00:17:55.371Z,2.68
2016-12-23T00:18:55.235Z,2.72
2016-12-23T00:19:55.605Z,2.74
2016-12-23T00:20:55.684Z,2.69
2016-12-23T00:21:55.698Z,2.68
2016-12-23T00:22:56.218Z,2.68
2016-12-23T00:23:56.430Z,2.74
2016-12-23T00:24:55.468Z,2.75
2016-12-23T00:25:56.229Z,2.71
2016-12-23T00:26:55.507Z,2.72
2016-12-23T00:27:55.551Z,2.67
2016-12-23T00:28:55.768Z,2.69
2016-12-23T00:29:55.844Z,2.79
2016-12-23T00:30:56.145Z,2.69
2016-12-23T00:31:55.511Z,2.71
2016-12-23T00:32:56.382Z,2.71
2016-12-23T00:33:56.170Z,2.72
2016-12-23T00:34:56.914Z,2.74
2016-12-23T00:35:56.091Z,2.77
2016-12-23T00:36:55.945Z,2.77
2016-12-23T00:37:55.918Z,2.77
2016-12-23T00:38:56.017Z,2.75
2016-12-23T00:39:55.545Z,2.85
2016-12-23T00:40:56.130Z,2.77
2016-12-23T00:41:55.833Z,2.8
2016-12-23T00:42:56.102Z,2.8
2016-12-23T00:43:55.467Z,2.77
2016-12-23T00:44:55.942Z,2.83
2016-12-23T00:45:55.892Z,2.72
2016-12-23T00:46:55.605Z,2.82
2016-12-23T00:47:55.821Z,2.85
2016-12-23T00:48:55.787Z,2.79
2016-12-23T00:49:56.190Z,2.82
2016-12-23T00:50:55.618Z,2.8
2016-12-23T00:51:56.039Z,2.85
2016-12-23T00:52:56.315Z,2.79
2016-12-23T00:53:56.232Z,2.85
2016-12-23T00:54:55.740Z,2.77
2016-12-23T00:55:55.918Z,2.85
2016-12-23T00:56:55.738Z,2.79
2016-12-23T00:57:56.594Z,2.82
2016-12-23T00:58:56.712Z,2.82
2016-12-23T00:59:55.920Z,2.85
2016-12-23T01:00:55.691Z,2.85
2016-12-23T01:01:55.620Z,2.85
2016-12-23T01:02:56.351Z,2.85
2016-12-23T01:03:56.091Z,2.9
2016-12-23T01:04:56.766Z,2.85
2016-12-23T01:05:56.982Z,2.82
2016-12-23T01:06:56.251Z,2.9
2016-12-23T01:07:56.591Z,2.87
2016-12-23T01:08:56.221Z,2.89
2016-12-23T01:09:56.504Z,2.97
2016-12-23T01:10:57.424Z,2.86
2016-12-23T01:11:57.021Z,2.98
2016-12-23T01:12:56.416Z,2.92
2016-12-23T01:13:57.201Z,2.93
2016-12-23T01:14:55.721Z,2.95
2016-12-23T01:15:56.259Z,2.93
2016-12-23T01:16:56.724Z,2.97
2016-12-23T01:17:57.194Z,2.93
2016-12-23T01:18:56.366Z,3
2016-12-23T01:19:56.455Z,3.01
2016-12-23T01:20:56.569Z,3.01
2016-12-23T01:21:56.908Z,3.01
2016-12-23T01:22:56.666Z,3
2016-12-23T01:23:56.588Z,2.98
2016-12-23T01:24:56.536Z,3.04
2016-12-23T01:25:56.583Z,3.04
2016-12-23T01:26:56.795Z,3.01
2016-12-23T01:27:56.049Z,3.01
2016-12-23T01:28:56.831Z,3.01
2016-12-23T01:29:56.762Z,3.08
2016-12-23T01:30:57.085Z,3.05
2016-12-23T01:31:56.460Z,3.01
2016-12-23T01:32:56.565Z,3.07
2016-12-23T01:33:56.759Z,3.08
2016-12-23T01:34:56.470Z,3.04
2016-12-23T01:35:56.795Z,3.11
2016-12-23T01:36:56.268Z,3.08
2016-12-23T01:37:56.869Z,3.08
2016-12-23T01:38:56.758Z,3.04
2016-12-23T01:39:57.284Z,3.03
2016-12-23T01:40:56.786Z,3
2016-12-23T01:41:57.053Z,3.01
2016-12-23T01:42:56.399Z,3.07
2016-12-23T01:43:56.739Z,3.04
2016-12-23T01:44:57.049Z,3.1
2016-12-23T01:45:56.363Z,2.92
2016-12-23T01:46:56.610Z,3.04
2016-12-23T01:47:56.598Z,2.9
2016-12-23T01:48:57.008Z,3
2016-12-23T01:49:56.989Z,2.97
2016-12-23T01:50:56.775Z,2.97
2016-12-23T01:51:56.838Z,2.86
2016-12-23T01:52:56.479Z,2.86
2016-12-23T01:53:56.661Z,2.89
2016-12-23T01:54:56.558Z,2.95
2016-12-23T01:55:57.156Z,2.85
2016-12-23T01:56:56.919Z,2.93
2016-12-23T01:57:57.134Z,2.86
2016-12-23T01:58:56.945Z,2.86
2016-12-23T01:59:57.099Z,2.86
2016-12-23T02:00:56.675Z,2.85
2016-12-23T02:01:56.769Z,2.79
2016-12-23T02:02:57.486Z,2.85
2016-12-23T02:03:57.548Z,2.79
2016-12-23T02:04:57.452Z,2.86
2016-12-23T02:05:56.583Z,2.82
2016-12-23T02:06:57.166Z,2.87
2016-12-23T02:07:57.027Z,2.85
2016-12-23T02:08:57.254Z,2.79
2016-12-23T02:09:57.305Z,2.8
2016-12-23T02:10:57.145Z,2.87
2016-12-23T02:11:56.789Z,2.79
2016-12-23T02:12:57.726Z,2.79
2016-12-23T02:13:57.178Z,2.83
2016-12-23T02:14:57.599Z,2.8
2016-12-23T02:15:57.145Z,2.79
2016-12-23T02:16:56.928Z,2.8
2016-12-23T02:17:57.368Z,2.85
2016-12-23T02:18:57.599Z,2.83
2016-12-23T02:19:56.842Z,2.8
2016-12-23T02:20:56.986Z,2.8
2016-12-23T02:21:57.422Z,2.8
2016-12-23T02:22:57.428Z,2.86
2016-12-23T02:23:57.399Z,2.82
2016-12-23T02:24:57.275Z,2.8
2016-12-23T02:25:56.837Z,2.8
2016-12-23T02:26:57.859Z,2.85
2016-12-23T02:27:57.361Z,2.8
2016-12-23T02:28:56.864Z,2.82
2016-12-23T02:29:56.935Z,2.86
2016-12-23T02:30:57.482Z,2.8
2016-12-23T02:31:57.503Z,2.83
2016-12-23T02:32:57.394Z,2.82
2016-12-23T02:33:57.647Z,2.79
2016-12-23T02:34:57.221Z,2.83
2016-12-23T02:35:57.237Z,2.8
2016-12-23T02:36:57.685Z,2.82
2016-12-23T02:37:56.994Z,2.85
2016-12-23T02:38:58.204Z,2.89
2016-12-23T02:39:58.409Z,2.82
2016-12-23T02:40:57.648Z,2.85
2016-12-23T02:41:57.613Z,2.85
2016-12-23T02:42:58.139Z,2.85
2016-12-23T02:43:57.477Z,2.85
2016-12-23T02:44:57.467Z,2.8
2016-12-23T02:45:57.108Z,2.79
2016-12-23T02:46:57.706Z,2.8
2016-12-23T02:47:57.464Z,2.85
2016-12-23T02:48:57.575Z,2.8
2016-12-23T02:49:57.216Z,2.82
2016-12-23T02:50:57.791Z,2.82
2016-12-23T02:51:57.654Z,2.77
2016-12-23T02:52:57.715Z,2.89
2016-12-23T02:53:58.183Z,2.82
2016-12-23T02:54:57.561Z,2.79
2016-12-23T02:55:57.260Z,2.79
2016-12-23T02:56:57.619Z,2.79
2016-12-23T02:57:57.503Z,2.8
2016-12-23T02:58:57.866Z,2.77
2016-12-23T02:59:58.050Z,2.82
2016-12-23T03:00:57.857Z,2.8
2016-12-23T03:01:57.988Z,2.83
2016-12-23T03:02:57.502Z,2.82
2016-12-23T03:03:57.549Z,2.79
2016-12-23T03:04:57.594Z,2.75
2016-12-23T03:05:57.489Z,2.72
2016-12-23T03:06:57.745Z,2.82
2016-12-23T03:07:57.735Z,2.77
2016-12-23T03:08:57.553Z,2.82
2016-12-23T03:09:57.480Z,2.83
2016-12-23T03:10:58.494Z,2.79
2016-12-23T03:11:57.508Z,2.8
2016-12-23T03:12:58.091Z,2.69
2016-12-23T03:13:57.497Z,2.77
2016-12-23T03:14:57.873Z,2.72
2016-12-23T03:15:57.858Z,2.75
2016-12-23T03:16:58.032Z,2.77
2016-12-23T03:18:03.732Z,2.69
2016-12-23T03:18:57.795Z,2.72
2016-12-23T03:19:57.801Z,2.61
2016-12-23T03:20:58.180Z,2.69
2016-12-23T03:21:58.226Z,2.6
2016-12-23T03:22:57.768Z,2.57
2016-12-23T03:23:57.865Z,2.57
2016-12-23T03:24:58.329Z,2.61
2016-12-23T03:25:57.940Z,2.64
2016-12-23T03:26:57.541Z,2.62
2016-12-23T03:27:57.948Z,2.6
2016-12-23T03:28:57.791Z,2.61
2016-12-23T03:29:58.098Z,2.6
2016-12-23T03:30:57.786Z,2.65
2016-12-23T03:31:57.608Z,2.64
2016-12-23T03:32:58.717Z,2.61
2016-12-23T03:33:58.325Z,2.53
2016-12-23T03:34:57.946Z,2.64
2016-12-23T03:35:58.227Z,2.65
2016-12-23T03:36:58.978Z,2.67
2016-12-23T03:37:57.900Z,2.6
2016-12-23T03:38:58.613Z,2.68
2016-12-23T03:39:57.798Z,2.61
2016-12-23T03:40:57.900Z,2.65
2016-12-23T03:41:59.121Z,2.6
2016-12-23T03:42:57.920Z,2.61
2016-12-23T03:43:58.249Z,2.6
2016-12-23T03:44:58.183Z,2.64
2016-12-23T03:45:58.093Z,2.62
2016-12-23T03:46:58.105Z,2.62
2016-12-23T03:47:58.444Z,2.61
2016-12-23T03:48:58.358Z,2.67
2016-12-23T03:49:58.478Z,2.6
2016-12-23T03:50:58.282Z,2.72
2016-12-23T03:51:57.827Z,2.77
2016-12-23T03:52:58.385Z,2.77
2016-12-23T03:53:58.211Z,2.71
2016-12-23T03:54:58.572Z,2.74
2016-12-23T03:55:58.197Z,2.71
2016-12-23T03:56:58.312Z,2.65
2016-12-23T03:57:57.995Z,2.68
2016-12-23T03:58:58.776Z,2.72
2016-12-23T03:59:58.109Z,2.71
2016-12-23T04:00:58.633Z,2.61
2016-12-23T04:01:59.063Z,2.61
2016-12-23T04:03:00.189Z,2.68
2016-12-23T04:03:58.082Z,2.64
2016-12-23T04:04:58.398Z,2.6
2016-12-23T04:05:58.131Z,2.64
2016-12-23T04:06:58.344Z,2.64
2016-12-23T04:07:58.806Z,2.64
2016-12-23T04:08:58.638Z,2.56
2016-12-23T04:09:58.123Z,2.64
2016-12-23T04:10:59.489Z,2.53
2016-12-23T04:11:58.678Z,2.51
2016-12-23T04:12:59.161Z,2.54
2016-12-23T04:13:58.624Z,2.51
2016-12-23T04:14:59.304Z,2.57
2016-12-23T04:15:59.579Z,2.54
2016-12-23T04:16:58.774Z,2.65
2016-12-23T04:17:58.567Z,2.49
2016-12-23T04:18:58.649Z,2.53
2016-12-23T04:19:58.595Z,2.64
2016-12-23T04:20:59.264Z,2.65
2016-12-23T04:21:59.195Z,2.62
2016-12-23T04:22:58.820Z,2.62
2016-12-23T04:23:59.361Z,2.74
2016-12-23T04:24:59.293Z,2.74
2016-12-23T04:25:59.317Z,2.71
2016-12-23T04:26:59.022Z,2.64
2016-12-23T04:27:59.181Z,2.67
2016-12-23T04:28:59.703Z,2.65
2016-12-23T04:29:58.596Z,2.74
2016-12-23T04:30:58.495Z,2.75
2016-12-23T04:31:58.477Z,2.72
2016-12-23T04:32:59.117Z,2.71
2016-12-23T04:33:59.520Z,2.71
2016-12-23T04:34:59.349Z,2.69
2016-12-23T04:35:59.307Z,2.62
2016-12-23T04:36:58.701Z,2.69
2016-12-23T04:37:59.155Z,2.62
2016-12-23T04:38:58.712Z,2.64
2016-12-23T04:39:59.360Z,2.53
2016-12-23T04:40:59.082Z,2.56
2016-12-23T04:41:58.549Z,2.54
2016-12-23T04:42:59.447Z,2.51
2016-12-23T04:43:59.335Z,2.5
2016-12-23T04:44:59.075Z,2.51
2016-12-23T04:45:59.061Z,2.5
2016-12-23T04:46:59.366Z,2.43
2016-12-23T04:47:59.162Z,2.5
2016-12-23T04:48:59.142Z,2.43
2016-12-23T04:49:59.472Z,2.43
2016-12-23T04:50:59.250Z,2.46
2016-12-23T04:52:00.198Z,2.36
2016-12-23T04:52:59.144Z,2.42
2016-12-23T04:53:59.518Z,2.5
2016-12-23T04:54:59.750Z,2.33
2016-12-23T04:55:58.903Z,2.32
2016-12-23T04:56:59.389Z,2.39
2016-12-23T04:57:59.258Z,2.39
2016-12-23T04:58:59.464Z,2.31
2016-12-23T04:59:59.124Z,2.31
2016-12-23T05:00:59.085Z,2.29
2016-12-23T05:01:59.034Z,2.25
2016-12-23T05:02:59.048Z,2.29
2016-12-23T05:03:59.414Z,2.28
2016-12-23T05:04:59.482Z,2.2
2016-12-23T05:05:58.908Z,2.22
2016-12-23T05:07:00.066Z,2.2
2016-12-23T05:07:59.416Z,2.24
2016-12-23T05:08:59.624Z,2.18
2016-12-23T05:09:59.843Z,2.15
2016-12-23T05:11:00.366Z,2.25
2016-12-23T05:11:59.954Z,2.13
2016-12-23T05:12:59.353Z,2.18
2016-12-23T05:13:59.884Z,2.13
2016-12-23T05:14:59.550Z,2.15
2016-12-23T05:16:00.033Z,2.18
2016-12-23T05:16:59.971Z,2.17
2016-12-23T05:17:59.729Z,2.22
2016-12-23T05:18:59.947Z,2.14
2016-12-23T05:19:59.691Z,2.22
2016-12-23T05:20:59.957Z,2.18
2016-12-23T05:22:00.746Z,2.22
2016-12-23T05:22:59.434Z,2.22
2016-12-23T05:23:59.869Z,2.15
2016-12-23T05:25:00.230Z,2.1
2016-12-23T05:25:59.658Z,2.18
2016-12-23T05:26:59.994Z,2.15
2016-12-23T05:28:00.942Z,2.24
2016-12-23T05:28:59.997Z,2.18
2016-12-23T05:30:00.666Z,2.15
2016-12-23T05:31:00.426Z,2.2
2016-12-23T05:32:00.367Z,2.14
2016-12-23T05:32:59.581Z,2.26
2016-12-23T05:34:00.372Z,2.24
2016-12-23T05:34:59.682Z,2.18
2016-12-23T05:36:00.379Z,2.22
2016-12-23T05:36:59.771Z,2.24
2016-12-23T05:37:59.480Z,2.22
2016-12-23T05:39:00.357Z,2.24
2016-12-23T05:39:59.585Z,2.33
2016-12-23T05:40:59.897Z,2.32
2016-12-23T05:41:59.828Z,2.32
2016-12-23T05:43:00.247Z,2.29
2016-12-23T05:43:59.912Z,2.31
2016-12-23T05:45:01.086Z,2.32
2016-12-23T05:45:59.334Z,2.35
2016-12-23T05:47:00.591Z,2.35
2016-12-23T05:48:00.043Z,2.33
2016-12-23T05:48:59.475Z,2.38
2016-12-23T05:49:59.969Z,2.33
2016-12-23T05:51:00.720Z,2.32
2016-12-23T05:51:59.669Z,2.31
2016-12-23T05:53:01.017Z,2.42
2016-12-23T05:53:59.994Z,2.31
2016-12-23T05:55:00.148Z,2.32
2016-12-23T05:55:59.910Z,2.29
2016-12-23T05:57:00.686Z,2.32
2016-12-23T05:58:00.446Z,2.15
2016-12-23T05:58:59.683Z,2.18
2016-12-23T05:59:59.920Z,2.18
2016-12-23T06:01:00.305Z,2.17
2016-12-23T06:02:01.705Z,2.13
2016-12-23T06:03:00.465Z,2.07
2016-12-23T06:04:00.474Z,2.18
2016-12-23T06:04:59.783Z,2.1
2016-12-23T06:05:59.997Z,2.18
2016-12-23T06:06:59.447Z,2.14
2016-12-23T06:08:00.044Z,2.14
2016-12-23T06:09:00.763Z,2.15
2016-12-23T06:09:59.938Z,2.17
2016-12-23T06:11:01.108Z,2.22
2016-12-23T06:12:00.566Z,2.2
2016-12-23T06:13:00.100Z,2.28
2016-12-23T06:14:00.463Z,2.18
2016-12-23T06:15:00.526Z,2.28
2016-12-23T06:16:00.839Z,2.29
2016-12-23T06:17:00.170Z,2.31
2016-12-23T06:18:00.403Z,2.29
2016-12-23T06:19:00.308Z,2.29
2016-12-23T06:19:59.866Z,2.31
2016-12-23T06:21:00.927Z,2.28
2016-12-23T06:22:00.411Z,2.38
2016-12-23T06:23:00.700Z,2.36
2016-12-23T06:24:00.087Z,2.32
2016-12-23T06:24:59.924Z,2.35
2016-12-23T06:26:00.212Z,2.43
2016-12-23T06:27:01.340Z,2.47
2016-12-23T06:28:00.154Z,2.42
2016-12-23T06:29:00.239Z,2.39
2016-12-23T06:30:00.944Z,2.39
2016-12-23T06:31:01.026Z,2.5
2016-12-23T06:32:00.765Z,2.43
2016-12-23T06:33:00.592Z,2.49
2016-12-23T06:34:00.867Z,2.49
2016-12-23T06:35:00.559Z,2.46
2016-12-23T06:36:00.428Z,2.43
2016-12-23T06:37:00.502Z,2.56
2016-12-23T06:38:00.819Z,2.5
2016-12-23T06:39:00.919Z,2.6
2016-12-23T06:40:00.628Z,2.67
2016-12-23T06:41:01.258Z,2.61
2016-12-23T06:42:01.210Z,2.62
2016-12-23T06:43:00.814Z,2.67
2016-12-23T06:44:00.846Z,2.65
2016-12-23T06:45:00.121Z,2.57
2016-12-23T06:46:00.226Z,2.62
2016-12-23T06:47:01.537Z,2.72
2016-12-23T06:48:00.631Z,2.67
2016-12-23T06:49:00.627Z,2.75
2016-12-23T06:50:01.211Z,2.72
2016-12-23T06:51:00.578Z,2.8
2016-12-23T06:52:00.909Z,2.69
2016-12-23T06:53:00.503Z,2.75
2016-12-23T06:54:01.571Z,2.71
2016-12-23T06:55:01.155Z,2.69
2016-12-23T06:56:00.300Z,2.68
2016-12-23T06:57:00.947Z,2.77
2016-12-23T06:58:00.784Z,2.68
2016-12-23T06:59:00.304Z,2.71
2016-12-23T07:00:01.028Z,2.79
2016-12-23T07:01:01.786Z,2.65
2016-12-23T07:02:01.240Z,2.71
2016-12-23T07:03:00.999Z,2.71
2016-12-23T07:04:00.591Z,2.8
2016-12-23T07:05:00.611Z,2.77
2016-12-23T07:06:01.637Z,2.72
2016-12-23T07:07:01.149Z,2.69
2016-12-23T07:08:01.234Z,2.71
2016-12-23T07:09:01.419Z,2.74
2016-12-23T07:10:01.737Z,2.74
2016-12-23T07:11:00.878Z,2.67
2016-12-23T07:12:02.423Z,2.72
2016-12-23T07:13:01.680Z,2.72
2016-12-23T07:14:01.515Z,2.67
2016-12-23T07:15:01.911Z,2.77
2016-12-23T07:16:02.028Z,2.71
2016-12-23T07:17:01.678Z,2.77
2016-12-23T07:18:01.408Z,2.85
2016-12-23T07:19:00.832Z,2.83
2016-12-23T07:20:00.826Z,2.77
2016-12-23T07:21:01.209Z,2.77
2016-12-23T07:22:01.371Z,2.77
2016-12-23T07:23:00.902Z,2.85
2016-12-23T07:24:00.952Z,2.89
2016-12-23T07:25:01.433Z,2.82
2016-12-23T07:26:00.887Z,2.8
2016-12-23T07:27:01.023Z,2.82
2016-12-23T07:28:01.309Z,2.82
2016-12-23T07:29:01.412Z,2.87
2016-12-23T07:30:00.896Z,2.8
2016-12-23T07:31:01.303Z,2.9
2016-12-23T07:32:01.522Z,2.87
2016-12-23T07:33:01.173Z,2.87
2016-12-23T07:34:01.247Z,2.86
2016-12-23T07:35:01.633Z,2.86
2016-12-23T07:36:00.714Z,2.89
2016-12-23T07:37:01.055Z,2.93
2016-12-23T07:38:00.946Z,3.01
2016-12-23T07:39:00.945Z,2.95
2016-12-23T07:40:00.934Z,2.93
2016-12-23T07:41:01.538Z,3
2016-12-23T07:42:00.776Z,2.92
2016-12-23T07:43:01.307Z,3
2016-12-23T07:44:00.977Z,2.98
2016-12-23T07:45:01.206Z,2.92
2016-12-23T07:46:01.498Z,3.01
2016-12-23T07:47:00.981Z,3.01
2016-12-23T07:48:01.185Z,2.97
2016-12-23T07:49:01.611Z,3.03
2016-12-23T07:50:01.718Z,3.07
2016-12-23T07:51:01.493Z,3.01
2016-12-23T07:52:03.178Z,3.07
2016-12-23T07:53:00.950Z,3.1
2016-12-23T07:54:01.514Z,3.13
2016-12-23T07:55:02.766Z,3.07
2016-12-23T07:56:02.636Z,3.07
2016-12-23T07:57:01.248Z,3.1
2016-12-23T07:58:01.204Z,3.11
2016-12-23T07:59:01.557Z,3.14
2016-12-23T08:00:01.639Z,3.08
2016-12-23T08:01:01.730Z,3.05
2016-12-23T08:02:01.970Z,3.11
2016-12-23T08:03:02.017Z,3.14
2016-12-23T08:04:02.527Z,3.14
2016-12-23T08:05:01.597Z,3.14
2016-12-23T08:06:01.351Z,3.13
2016-12-23T08:07:01.859Z,3.21
2016-12-23T08:08:02.028Z,3.18
2016-12-23T08:09:01.838Z,3.13
2016-12-23T08:10:01.087Z,3.11
2016-12-23T08:11:01.747Z,3.1
2016-12-23T08:12:01.286Z,3.14
2016-12-23T08:13:01.428Z,3.18
2016-12-23T08:14:01.575Z,3.13
2016-12-23T08:15:01.652Z,3.14
2016-12-23T08:16:01.668Z,3.14
2016-12-23T08:17:01.764Z,3.23
2016-12-23T08:18:00.947Z,3.18
2016-12-23T08:19:01.732Z,3.14
2016-12-23T08:20:01.809Z,3.18
2016-12-23T08:21:01.794Z,3.07
2016-12-23T08:22:01.694Z,3.13
2016-12-23T08:23:02.099Z,3.18
2016-12-23T08:24:01.840Z,3.13
2016-12-23T08:25:01.371Z,3.26
2016-12-23T08:26:01.557Z,3.22
2016-12-23T08:27:01.395Z,3.21
2016-12-23T08:28:02.241Z,3.22
2016-12-23T08:29:02.420Z,3.13
2016-12-23T08:30:01.813Z,3.13
2016-12-23T08:31:02.095Z,3.23
2016-12-23T08:32:01.605Z,3.19
2016-12-23T08:33:01.561Z,3.16
2016-12-23T08:34:01.689Z,3.21
2016-12-23T08:35:01.730Z,3.23
2016-12-23T08:36:01.651Z,3.16
2016-12-23T08:37:02.189Z,3.23
2016-12-23T08:38:02.026Z,3.21
2016-12-23T08:39:02.130Z,3.25
2016-12-23T08:40:02.018Z,3.16
2016-12-23T08:41:01.674Z,3.16
2016-12-23T08:42:01.826Z,3.23
2016-12-23T08:43:02.587Z,3.21
2016-12-23T08:44:02.833Z,3.18
2016-12-23T08:45:02.732Z,3.26
2016-12-23T08:46:02.139Z,3.32
2016-12-23T08:47:01.637Z,3.28
2016-12-23T08:48:02.473Z,3.25
2016-12-23T08:49:02.668Z,3.31
2016-12-23T08:50:02.259Z,3.34
2016-12-23T08:51:02.587Z,3.42
2016-12-23T08:52:02.287Z,3.34
2016-12-23T08:53:02.158Z,3.31
2016-12-23T08:54:02.723Z,3.26
2016-12-23T08:55:02.764Z,3.44
2016-12-23T08:56:02.963Z,3.4
2016-12-23T08:57:01.926Z,3.4
2016-12-23T08:58:01.876Z,3.4
2016-12-23T08:59:02.503Z,3.47
2016-12-23T09:00:02.446Z,3.42
2016-12-23T09:01:02.432Z,3.41
2016-12-23T09:02:02.767Z,3.37
2016-12-23T09:03:04.287Z,3.42
2016-12-23T09:04:02.889Z,3.44
2016-12-23T09:05:02.805Z,3.4
2016-12-23T09:06:02.721Z,3.37
2016-12-23T09:07:01.771Z,3.47
2016-12-23T09:08:02.317Z,3.44
2016-12-23T09:09:02.621Z,3.56
2016-12-23T09:10:02.787Z,3.55
2016-12-23T09:11:02.212Z,3.45
2016-12-23T09:12:01.850Z,3.47
2016-12-23T09:13:03.585Z,3.53
2016-12-23T09:14:02.461Z,3.51
2016-12-23T09:15:02.314Z,3.62
2016-12-23T09:16:02.945Z,3.62
2016-12-23T09:17:02.676Z,3.58
2016-12-23T09:18:03.386Z,3.58
2016-12-23T09:19:02.652Z,3.58
2016-12-23T09:20:02.645Z,3.62
2016-12-23T09:21:02.452Z,3.59
2016-12-23T09:22:02.891Z,3.6
2016-12-23T09:23:03.689Z,3.58
2016-12-23T09:24:02.212Z,3.56
2016-12-23T09:25:02.543Z,3.74
2016-12-23T09:26:03.396Z,3.74
2016-12-23T09:27:02.739Z,3.62
2016-12-23T09:28:02.981Z,3.6
2016-12-23T09:29:02.691Z,3.74
2016-12-23T09:30:02.329Z,3.6
2016-12-23T09:31:02.536Z,3.66
2016-12-23T09:32:02.727Z,3.68
2016-12-23T09:33:02.291Z,3.69
2016-12-23T09:34:02.653Z,3.7
2016-12-23T09:35:03.057Z,3.73
2016-12-23T09:36:02.715Z,3.7
2016-12-23T09:37:02.767Z,3.73
2016-12-23T09:38:07.503Z,3.78
2016-12-23T09:39:10.413Z,3.73
2016-12-23T09:41:07.697Z,3.68
2016-12-23T09:42:06.523Z,3.74
2016-12-23T09:43:08.462Z,3.83
2016-12-23T09:44:08.401Z,3.8
2016-12-23T09:45:06.880Z,3.8
2016-12-23T09:46:09.629Z,3.84
2016-12-23T09:47:05.665Z,3.84
2016-12-23T09:48:08.951Z,3.87
2016-12-23T09:49:08.464Z,3.92
2016-12-23T09:50:06.080Z,3.98
2016-12-23T09:51:08.698Z,3.91
2016-12-23T09:52:06.994Z,3.94
2016-12-23T09:53:05.540Z,4.02
2016-12-23T09:54:10.690Z,3.94
2016-12-23T09:55:08.607Z,3.95
2016-12-23T09:57:09.700Z,4.02
2016-12-23T09:58:07.766Z,4.08
2016-12-23T09:59:07.685Z,3.99
2016-12-23T10:00:08.715Z,3.96
2016-12-23T10:01:02.961Z,4.06
2016-12-23T10:02:04.108Z,4.05
2016-12-23T10:03:03.360Z,4.01
2016-12-23T10:04:03.873Z,4.19
2016-12-23T10:05:03.066Z,4.1
2016-12-23T10:06:02.764Z,4.14
2016-12-23T10:07:03.268Z,4.2
2016-12-23T10:08:03.447Z,4.19
2016-12-23T10:09:03.053Z,4.2
2016-12-23T10:10:03.662Z,4.17
2016-12-23T10:11:03.230Z,4.14
2016-12-23T10:12:03.430Z,4.22
2016-12-23T10:13:03.378Z,4.28
2016-12-23T10:14:03.024Z,4.3
2016-12-23T10:15:03.038Z,4.3
2016-12-23T10:16:03.408Z,4.32
2016-12-23T10:17:03.593Z,4.3
2016-12-23T10:18:03.742Z,4.34
2016-12-23T10:19:02.921Z,4.32
2016-12-23T10:20:03.593Z,4.26
2016-12-23T10:21:04.135Z,4.31
2016-12-23T10:22:03.058Z,4.42
2016-12-23T10:23:04.094Z,4.45
2016-12-23T10:24:03.653Z,4.41
2016-12-23T10:25:03.492Z,4.35
2016-12-23T10:26:04.443Z,4.45
2016-12-23T10:27:03.454Z,4.48
2016-12-23T10:28:03.330Z,4.49
2016-12-23T10:29:04.213Z,4.44
2016-12-23T10:30:03.063Z,4.52
2016-12-23T10:31:03.216Z,4.58
2016-12-23T10:32:04.309Z,4.56
2016-12-23T10:33:03.484Z,4.62
2016-12-23T10:34:03.561Z,4.55
2016-12-23T10:35:04.049Z,4.56
2016-12-23T10:36:03.611Z,4.62
2016-12-23T10:37:04.182Z,4.67
2016-12-23T10:38:04.173Z,4.59
2016-12-23T10:39:04.019Z,4.6
2016-12-23T10:40:04.072Z,4.62
2016-12-23T10:41:04.307Z,4.56
2016-12-23T10:42:03.404Z,4.67
2016-12-23T10:43:04.215Z,4.73
2016-12-23T10:44:03.974Z,4.68
2016-12-23T10:45:04.133Z,4.7
2016-12-23T10:46:04.389Z,4.63
2016-12-23T10:47:03.612Z,4.84
2016-12-23T10:48:04.857Z,4.82
2016-12-23T10:49:04.867Z,4.87
2016-12-23T10:50:04.247Z,4.93
2016-12-23T10:51:03.331Z,4.97
2016-12-23T10:52:05.945Z,4.92
2016-12-23T10:53:04.533Z,4.96
2016-12-23T10:54:03.446Z,5.02
2016-12-23T10:55:04.147Z,5.14
2016-12-23T10:56:04.879Z,5.11
2016-12-23T10:57:04.357Z,5.3
2016-12-23T10:58:05.286Z,5.26
2016-12-23T10:59:04.785Z,5.36
2016-12-23T11:00:04.883Z,5.47
2016-12-23T11:01:04.270Z,5.5
2016-12-23T11:02:04.468Z,5.57
2016-12-23T11:03:04.806Z,5.59
2016-12-23T11:04:04.834Z,5.62
2016-12-23T11:05:03.859Z,5.48
2016-12-23T11:06:03.830Z,5.46
2016-12-23T11:07:03.589Z,5.51
2016-12-23T11:08:04.099Z,5.38
2016-12-23T11:09:05.050Z,5.39
2016-12-23T11:10:03.840Z,5.38
2016-12-23T11:11:03.838Z,5.46
2016-12-23T11:12:03.810Z,5.33
2016-12-23T11:13:04.805Z,5.44
2016-12-23T11:14:04.463Z,5.39
2016-12-23T11:15:03.677Z,5.44
2016-12-23T11:16:04.233Z,5.36
2016-12-23T11:17:04.124Z,5.43
2016-12-23T11:18:03.945Z,5.39
2016-12-23T11:19:04.293Z,5.43
2016-12-23T11:20:04.046Z,5.43
2016-12-23T11:21:04.429Z,5.48
2016-12-23T11:22:04.011Z,5.46
2016-12-23T11:23:03.998Z,5.44
2016-12-23T11:24:04.121Z,5.44
2016-12-23T11:25:04.370Z,5.38
2016-12-23T11:26:04.247Z,5.44
2016-12-23T11:27:04.125Z,5.51
2016-12-23T11:28:05.025Z,5.41
2016-12-23T11:29:03.672Z,5.47
2016-12-23T11:30:03.929Z,5.5
2016-12-23T11:31:03.788Z,5.57
2016-12-23T11:32:04.307Z,5.5
2016-12-23T11:33:04.440Z,5.61
2016-12-23T11:34:04.907Z,5.61
2016-12-23T11:35:04.383Z,5.59
2016-12-23T11:36:04.039Z,5.62
2016-12-23T11:37:04.764Z,5.65
2016-12-23T11:38:03.989Z,5.65
2016-12-23T11:39:04.655Z,5.66
2016-12-23T11:40:05.072Z,5.69
2016-12-23T11:41:04.432Z,5.71
2016-12-23T11:42:04.760Z,5.73
2016-12-23T11:43:05.183Z,5.75
2016-12-23T11:44:03.893Z,5.71
2016-12-23T11:45:04.671Z,5.71
2016-12-23T11:46:05.020Z,5.68
2016-12-23T11:47:04.811Z,5.82
2016-12-23T11:48:04.210Z,5.83
2016-12-23T11:49:04.709Z,5.9
2016-12-23T11:50:04.398Z,5.9
2016-12-23T11:51:04.679Z,5.84
2016-12-23T11:52:04.175Z,5.84
2016-12-23T11:53:04.145Z,5.84
2016-12-23T11:54:04.328Z,5.87
2016-12-23T11:55:05.101Z,5.87
2016-12-23T11:56:04.393Z,5.9
2016-12-23T11:57:05.087Z,5.8
2016-12-23T11:58:05.146Z,5.84
2016-12-23T11:59:04.870Z,5.79
2016-12-23T12:00:05.299Z,5.79
2016-12-23T12:01:04.698Z,5.83
2016-12-23T12:02:05.032Z,5.82
2016-12-23T12:03:05.004Z,5.82
2016-12-23T12:04:04.656Z,5.9
2016-12-23T12:05:04.657Z,5.84
2016-12-23T12:06:04.586Z,5.89
2016-12-23T12:07:05.100Z,5.87
2016-12-23T12:08:05.165Z,5.93
2016-12-23T12:09:04.595Z,5.93
2016-12-23T12:10:04.991Z,6.01
2016-12-23T12:11:04.463Z,5.99
2016-12-23T12:12:05.364Z,5.93
2016-12-23T12:13:06.077Z,5.94
2016-12-23T12:14:05.453Z,5.82
2016-12-23T12:15:04.418Z,5.84
2016-12-23T12:16:05.353Z,5.82
2016-12-23T12:17:05.036Z,5.82
2016-12-23T12:18:04.975Z,5.86
2016-12-23T12:19:05.004Z,5.76
2016-12-23T12:20:05.204Z,5.82
2016-12-23T12:21:05.135Z,5.8
2016-12-23T12:22:04.621Z,5.83
2016-12-23T12:23:06.068Z,5.83
2016-12-23T12:24:05.329Z,5.82
2016-12-23T12:25:05.213Z,5.8
2016-12-23T12:26:05.130Z,5.82
2016-12-23T12:27:05.580Z,5.75
2016-12-23T12:28:04.455Z,5.71
2016-12-23T12:29:05.188Z,5.8
2016-12-23T12:30:04.762Z,5.72
2016-12-23T12:31:05.156Z,5.76
2016-12-23T12:32:05.114Z,5.71
2016-12-23T12:33:05.699Z,5.79
2016-12-23T12:34:05.451Z,5.79
2016-12-23T12:35:05.744Z,5.82
2016-12-23T12:36:05.263Z,5.84
2016-12-23T12:37:04.943Z,5.91
2016-12-23T12:38:05.093Z,5.98
2016-12-23T12:39:05.452Z,6.02
2016-12-23T12:40:05.056Z,6.04
2016-12-23T12:41:04.940Z,6.07
2016-12-23T12:42:05.616Z,6.08
2016-12-23T12:43:05.846Z,6.22
2016-12-23T12:44:05.705Z,6.31
2016-12-23T12:45:05.173Z,6.31
2016-12-23T12:46:05.216Z,6.27
2016-12-23T12:47:05.724Z,6.28
2016-12-23T12:48:05.189Z,6.3
2016-12-23T12:49:05.292Z,6.31
2016-12-23T12:50:05.208Z,6.33
2016-12-23T12:51:05.361Z,6.36
2016-12-23T12:52:05.185Z,6.49
2016-12-23T12:53:05.812Z,6.48
2016-12-23T12:54:05.541Z,6.48
2016-12-23T12:55:07.141Z,6.42
2016-12-23T12:56:05.544Z,6.51
2016-12-23T12:57:05.407Z,6.39
2016-12-23T12:58:06.066Z,6.36
2016-12-23T12:59:05.281Z,6.42
2016-12-23T13:00:05.387Z,6.45
2016-12-23T13:01:05.641Z,6.35
2016-12-23T13:02:05.156Z,6.44
2016-12-23T13:03:05.240Z,6.44
2016-12-23T13:04:05.806Z,6.42
2016-12-23T13:05:05.878Z,6.46
2016-12-23T13:06:05.587Z,6.48
2016-12-23T13:07:05.765Z,6.49
2016-12-23T13:08:06.204Z,6.49
2016-12-23T13:09:05.798Z,6.49
2016-12-23T13:10:05.529Z,6.48
2016-12-23T13:11:05.948Z,6.46
2016-12-23T13:12:05.191Z,6.41
2016-12-23T13:13:05.489Z,6.26
2016-12-23T13:14:05.560Z,6.27
2016-12-23T13:15:06.059Z,6.12
2016-12-23T13:16:06.027Z,6.11
2016-12-23T13:17:05.740Z,6.02
2016-12-23T13:18:06.035Z,6.01
2016-12-23T13:19:05.706Z,5.91
2016-12-23T13:20:06.210Z,5.83
2016-12-23T13:21:05.922Z,5.82
2016-12-23T13:22:06.360Z,5.76
2016-12-23T13:23:05.823Z,5.71
2016-12-23T13:24:06.172Z,5.65